Hamilton, Ontario

11:56 AM EDT on August 30, 2015 (GMT -0400)
Durand | | Change Station
CLOSE
Current Station
Personal Weather Station
Location: Hamilton, ONTARIO
Elevation: 348 ft
Nearby Weather Stations

Elev 348 ft 43.25 °N, 79.88 °W | Updated 1 minute ago

Mostly Cloudy
Mostly Cloudy
77.9 °F
Feels Like 80 °F
N
2.0
Wind Variable Wind from SW

Today is forecast to be nearly the same temperature as yesterday.

Today
High -- | Low -- °F
--% Chance of Precip.
Yesterday
High -- | Low -- °F
Precip. -- in
6:41 AM 7:58 PM
Full, 99% visible
Pressure 30.11 in
Visibility 12.0 miles
Clouds Few 2400 ft
Scattered Clouds 4500 ft
Mostly Cloudy 6000 ft
Mostly Cloudy 9300 ft
Heat Index 80 °F
Dew Point 68 °F
Humidity 71%
Rainfall 0.02 in
Snow Depth Not available.
UV 3 out of 12
Pollen Not available.
Air Quality Not available.
Flu Activity Not available.
METAR CYHM 301500Z VRB02KT 12SM FEW024 SCT045 BKN060 BKN093 23/17 A3011 RMK CU1SC3SC1AC2 SLP196 DENSITY ALT 1600FT
Pressure 30.11 in
Visibility 12.0 miles
Clouds Few 2400 ft
Scattered Clouds 4500 ft
Mostly Cloudy 6000 ft
Mostly Cloudy 9300 ft
Heat Index 80 °F
Dew Point 68 °F
Humidity 71%
Rainfall 0.02 in
Snow Depth Not available.
UV 3 out of 12
Pollen Not available.
Air Quality Not available.
Flu Activity Not available.
METAR CYHM 301500Z VRB02KT 12SM FEW024 SCT045 BKN060 BKN093 23/17 A3011 RMK CU1SC3SC1AC2 SLP196 DENSITY ALT 1600FT

10-Day Weather Forecast

×

Almanac

Astronomy

Aug. 30, 2015 Rise Set
Actual Time
Civil Twilight
Nautical Twilight
Astronomical Twilight
Moon
Length of Visible Light
Length of Day
Tomorrow will be .
, % of the Moon is Illuminated

Today's Extremes

Country Highs Country Lows

Community

WunderPhotos

Upload Photos

1,850,997 photos uploaded!

WunderBlogs® & News

Nearby

Air Quality

  Air Quality AQ Index Pollutant
Not available.

Snow Depth

Station Depth Elevation

Earthquake Activity

City Distance Mag. Time & Date
Minimum magnitude displayed is 2.5.

Coastal Water Temperatures

Place Temperature

Stations

Nearby Weather Stations

Station Location Temp. Windchill Dew Point Humidity Wind Precip. Elev Updated Type